Time;durP1;ratioP1;P1;durP2;ratioP2;P2;SDS_P1;SDS_P2;PMS_P1;PMS_P2;Temp;Humidity;BMP_temperature;BMP_pressure;BME280_temperature;BME280_humidity;BME280_pressure;Samples;Min_cycle;Max_cycle;Signal;HPM_P1;HPM_P2
2022/09/03 00:00:24;;;;;;;3.42;0.95;;;16.50;91.10;;;;;;5097276;28;20244;-84
2022/09/03 00:03:01;;;;;;;1.23;0.70;;;16.50;91.20;;;;;;5097123;28;20172;-83
2022/09/03 00:05:57;;;;;;;6.07;1.38;;;16.50;91.30;;;;;;5110132;28;20172;-83
2022/09/03 00:09:02;;;;;;;3.35;1.00;;;16.40;91.20;;;;;;5115262;28;20203;-83
2022/09/03 00:11:38;;;;;;;3.55;0.90;;;16.40;91.20;;;;;;5115352;28;20176;-83
2022/09/03 00:14:03;;;;;;;2.83;0.90;;;16.50;91.20;;;;;;5097046;28;20221;-83
2022/09/03 00:16:53;;;;;;;2.60;0.63;;;16.40;91.10;;;;;;5108785;28;20167;-84
2022/09/03 00:19:24;;;;;;;1.23;0.73;;;16.30;91.20;;;;;;5115411;28;20180;-84
2022/09/03 00:21:59;;;;;;;3.05;0.80;;;16.30;91.40;;;;;;5115604;28;20186;-82
2022/09/03 00:24:29;;;;;;;6.47;0.77;;;16.30;91.40;;;;;;5096336;28;20232;-84
2022/09/03 00:27:02;;;;;;;3.05;0.80;;;16.30;91.40;;;;;;5097072;28;20202;-84
2022/09/03 00:29:38;;;;;;;3.13;0.70;;;16.20;91.40;;;;;;5088714;28;20521;-84
2022/09/03 00:32:12;;;;;;;2.22;0.63;;;16.20;91.40;;;;;;5093660;28;20188;-83
2022/09/03 00:34:41;;;;;;;2.42;0.70;;;16.10;91.60;;;;;;5096457;28;20265;-84
2022/09/03 00:37:09;;;;;;;1.92;0.50;;;16.10;91.70;;;;;;5114881;28;20172;-83
2022/09/03 00:42:32;;;;;;;5.63;0.70;;;16.00;91.60;;;;;;4986781;28;20411;-86
2022/09/03 00:45:20;;;;;;;2.72;0.70;;;15.90;91.70;;;;;;4993674;28;20196;-86
2022/09/03 00:47:46;;;;;;;1.65;0.73;;;15.90;91.70;;;;;;4977123;28;20315;-85
2022/09/03 00:50:32;;;;;;;2.35;0.70;;;15.90;91.70;;;;;;4977005;28;20199;-84
2022/09/03 00:53:09;;;;;;;2.42;0.90;;;15.90;91.60;;;;;;4977549;28;20196;-85
2022/09/03 00:55:57;;;;;;;1.00;0.68;;;15.80;91.70;;;;;;4995082;28;20183;-83
2022/09/03 00:58:31;;;;;;;1.73;0.93;;;15.80;91.80;;;;;;4988135;28;20282;-84
2022/09/03 01:00:58;;;;;;;3.58;1.00;;;15.80;91.90;;;;;;4993505;28;20195;-84
2022/09/03 01:03:50;;;;;;;1.38;0.82;;;15.80;91.90;;;;;;4986888;28;20211;-86
2022/09/03 01:06:32;;;;;;;1.55;0.60;;;15.70;91.70;;;;;;4977304;28;20245;-84
2022/09/03 01:09:20;;;;;;;2.58;0.80;;;15.70;92.00;;;;;;4977536;28;20199;-84
2022/09/03 01:11:59;;;;;;;9.63;0.88;;;15.70;92.00;;;;;;4991697;28;20176;-85
2022/09/03 01:14:33;;;;;;;2.85;0.73;;;15.70;91.80;;;;;;4994337;28;20190;-86
2022/09/03 01:17:14;;;;;;;2.78;0.70;;;15.60;91.90;;;;;;4993029;28;20245;-86
2022/09/03 01:19:53;;;;;;;2.35;0.90;;;15.60;91.90;;;;;;4976835;28;20621;-83
2022/09/03 01:22:52;;;;;;;2.80;0.80;;;15.60;92.20;;;;;;4994601;28;20180;-85
2022/09/03 01:25:18;;;;;;;2.90;0.60;;;15.50;92.40;;;;;;4951237;28;20253;-84
2022/09/03 01:28:30;;;;;;;4.00;1.00;;;15.50;92.30;;;;;;4984117;28;20275;-84
2022/09/03 01:31:19;;;;;;;2.03;0.80;;;15.40;92.10;;;;;;4952097;28;20207;-85
2022/09/03 01:34:17;;;;;;;3.22;0.73;;;15.40;92.10;;;;;;4994409;28;20203;-83
2022/09/03 01:36:51;;;;;;;1.02;0.60;;;15.40;92.10;;;;;;4917552;28;20200;-86
2022/09/03 01:39:48;;;;;;;1.73;0.80;;;15.40;92.30;;;;;;4994496;28;20168;-85
2022/09/03 01:42:32;;;;;;;2.10;0.82;;;15.30;92.30;;;;;;4988528;28;20208;-83
2022/09/03 01:45:11;;;;;;;1.15;0.70;;;15.30;92.30;;;;;;4994135;28;20217;-82
2022/09/03 01:48:16;;;;;;;3.92;0.70;;;15.30;92.30;;;;;;4993848;28;20347;-83
2022/09/03 01:50:58;;;;;;;1.48;0.68;;;15.20;92.40;;;;;;4915066;29;20186;-82
2022/09/03 01:53:51;;;;;;;0.82;0.60;;;15.30;92.40;;;;;;4899125;29;20213;-82
2022/09/03 01:56:33;;;;;;;2.05;0.80;;;15.20;92.50;;;;;;4975613;28;20199;-82
2022/09/03 01:59:10;;;;;;;1.25;0.55;;;15.20;92.30;;;;;;4994052;28;20533;-82
2022/09/03 02:01:47;;;;;;;1.00;0.70;;;15.20;92.40;;;;;;4967523;28;20191;-82
2022/09/03 02:04:25;;;;;;;1.73;0.70;;;15.20;92.50;;;;;;4983702;28;20188;-83
2022/09/03 02:06:52;;;;;;;1.67;0.70;;;15.20;92.70;;;;;;4993608;28;20196;-83
2022/09/03 02:09:19;;;;;;;3.33;1.05;;;15.10;92.30;;;;;;4993472;28;20179;-83
2022/09/03 02:11:54;;;;;;;1.08;0.73;;;15.20;92.40;;;;;;4991889;28;20180;-82
2022/09/03 02:14:20;;;;;;;3.63;0.90;;;15.10;92.60;;;;;;4993403;28;20587;-82
2022/09/03 02:16:46;;;;;;;1.58;0.70;;;15.10;92.80;;;;;;4992648;28;20194;-82
2022/09/03 02:19:15;;;;;;;2.38;0.88;;;15.00;92.60;;;;;;4992204;28;20188;-81
2022/09/03 02:21:50;;;;;;;1.65;0.77;;;15.00;92.80;;;;;;4976328;28;20195;-83
2022/09/03 02:24:16;;;;;;;1.30;0.60;;;15.00;92.50;;;;;;4993746;28;20180;-82
2022/09/03 02:26:42;;;;;;;1.17;0.80;;;15.00;92.70;;;;;;4993399;28;20634;-83
2022/09/03 02:29:08;;;;;;;2.45;0.80;;;14.90;92.70;;;;;;4993025;28;20210;-83
2022/09/03 02:31:33;;;;;;;0.90;0.70;;;14.90;92.90;;;;;;4996020;28;20183;-84
2022/09/03 02:34:00;;;;;;;2.42;0.70;;;14.90;92.90;;;;;;4997394;28;20637;-82
2022/09/03 02:36:44;;;;;;;0.80;0.60;;;14.90;92.80;;;;;;4997344;28;20509;-81
2022/09/03 02:39:11;;;;;;;0.98;0.70;;;14.80;93.00;;;;;;4997630;28;20184;-83
2022/09/03 02:41:37;;;;;;;1.08;0.68;;;14.80;93.00;;;;;;5003620;28;20282;-82
2022/09/03 02:44:22;;;;;;;1.85;0.80;;;14.70;93.00;;;;;;4997440;28;20188;-81
2022/09/03 02:46:56;;;;;;;1.35;0.80;;;14.60;93.10;;;;;;4997250;28;20199;-82
2022/09/03 02:49:22;;;;;;;2.35;0.80;;;14.60;93.10;;;;;;4995690;28;20192;-82
2022/09/03 02:51:47;;;;;;;1.10;0.70;;;14.60;93.20;;;;;;4997134;28;20234;-82
2022/09/03 02:54:13;;;;;;;1.73;0.90;;;14.60;93.20;;;;;;4997149;28;20184;-81
2022/09/03 02:56:39;;;;;;;1.00;0.65;;;14.60;93.30;;;;;;4996740;28;20511;-81
2022/09/03 02:59:07;;;;;;;1.25;0.80;;;14.50;93.40;;;;;;4996955;28;20188;-84
2022/09/03 03:01:33;;;;;;;0.73;0.63;;;14.50;93.30;;;;;;4995823;28;20188;-86
2022/09/03 03:03:59;;;;;;;2.70;0.80;;;14.50;93.50;;;;;;4997145;28;20187;-85
2022/09/03 03:06:25;;;;;;;4.80;0.80;;;14.40;93.70;;;;;;4997034;28;20187;-82
2022/09/03 03:08:54;;;;;;;0.85;0.75;;;14.20;93.80;;;;;;4978684;28;20211;-85
2022/09/03 03:11:24;;;;;;;1.70;0.90;;;14.20;93.90;;;;;;4996368;28;20191;-85
2022/09/03 03:13:50;;;;;;;2.55;0.80;;;14.20;94.00;;;;;;4996805;28;20206;-83
2022/09/03 03:16:17;;;;;;;1.48;0.70;;;14.10;93.90;;;;;;4979179;28;20532;-84
2022/09/03 03:18:45;;;;;;;1.63;0.80;;;14.10;94.00;;;;;;4996539;28;20553;-84
2022/09/03 03:21:13;;;;;;;2.65;0.85;;;14.10;94.20;;;;;;4996590;28;20187;-83
2022/09/03 03:23:39;;;;;;;2.58;0.75;;;14.00;94.30;;;;;;4996284;28;20276;-83
2022/09/03 03:26:08;;;;;;;1.42;0.80;;;14.00;94.20;;;;;;4995080;28;20275;-83
2022/09/03 03:28:35;;;;;;;5.88;0.77;;;14.00;94.20;;;;;;4985209;28;20212;-85
2022/09/03 03:31:14;;;;;;;2.78;0.85;;;13.90;94.30;;;;;;4991855;28;20192;-82
2022/09/03 03:33:40;;;;;;;5.15;0.95;;;13.80;94.40;;;;;;4989042;28;20183;-83
2022/09/03 03:36:09;;;;;;;2.92;0.75;;;13.70;94.60;;;;;;4996245;28;20368;-82
2022/09/03 03:38:36;;;;;;;2.70;0.70;;;13.70;94.60;;;;;;5001091;28;20210;-82
2022/09/03 03:41:16;;;;;;;1.38;1.00;;;13.70;94.70;;;;;;5004754;28;20667;-82
2022/09/03 03:43:43;;;;;;;1.58;0.90;;;13.70;94.70;;;;;;4996013;28;20626;-81
2022/09/03 03:46:09;;;;;;;3.90;1.00;;;13.70;94.70;;;;;;4995973;28;20521;-82
2022/09/03 03:48:36;;;;;;;3.50;0.88;;;13.60;94.70;;;;;;4996080;28;20216;-83
2022/09/03 03:51:06;;;;;;;1.08;0.70;;;13.60;94.90;;;;;;4978540;28;20195;-84
2022/09/03 03:53:33;;;;;;;1.27;0.88;;;13.50;95.10;;;;;;4995830;28;20612;-86
2022/09/03 03:56:01;;;;;;;1.05;0.60;;;13.50;95.10;;;;;;4995683;28;20190;-85
2022/09/03 03:58:28;;;;;;;2.83;0.90;;;13.50;95.10;;;;;;4995915;28;20187;-84
2022/09/03 04:00:54;;;;;;;2.40;0.95;;;13.50;95.20;;;;;;4995888;28;20219;-84
2022/09/03 04:03:20;;;;;;;1.15;0.80;;;13.40;95.20;;;;;;4995766;28;20208;-84
2022/09/03 04:05:58;;;;;;;2.10;0.80;;;13.40;95.30;;;;;;4995734;28;20184;-82
2022/09/03 04:08:23;;;;;;;1.42;0.73;;;13.30;95.60;;;;;;4990600;28;20262;-84
2022/09/03 04:10:49;;;;;;;1.00;0.90;;;13.20;95.70;;;;;;4995619;28;20188;-85
2022/09/03 04:13:15;;;;;;;0.80;0.70;;;13.20;95.90;;;;;;4978084;28;20283;-83
2022/09/03 04:15:41;;;;;;;1.27;0.90;;;13.20;96.00;;;;;;4995349;28;20568;-82
2022/09/03 04:18:07;;;;;;;1.67;0.90;;;13.20;96.00;;;;;;4977873;28;20184;-85
2022/09/03 04:20:34;;;;;;;1.55;1.05;;;13.20;96.00;;;;;;4977820;28;20218;-85
2022/09/03 04:23:01;;;;;;;1.65;0.90;;;13.10;96.00;;;;;;4993938;28;20188;-82
2022/09/03 04:25:26;;;;;;;3.90;1.00;;;13.10;96.10;;;;;;4995013;28;20282;-83
2022/09/03 04:27:52;;;;;;;1.35;0.70;;;13.10;96.10;;;;;;4995313;28;20594;-82
2022/09/03 04:30:19;;;;;;;1.52;0.82;;;13.00;96.20;;;;;;4977217;28;20188;-82
2022/09/03 04:32:55;;;;;;;0.85;0.82;;;13.00;96.30;;;;;;4995239;28;20210;-82
2022/09/03 04:35:30;;;;;;;2.55;0.90;;;13.00;96.20;;;;;;4978046;28;20193;-84
2022/09/03 04:37:57;;;;;;;1.48;1.00;;;13.00;96.30;;;;;;4995121;28;20175;-83
2022/09/03 04:40:22;;;;;;;3.72;0.82;;;13.10;96.20;;;;;;4994906;28;20228;-82
2022/09/03 04:42:48;;;;;;;3.55;1.10;;;13.10;96.20;;;;;;4993947;28;20187;-84
2022/09/03 04:45:17;;;;;;;4.32;1.05;;;13.10;96.20;;;;;;4987294;28;20187;-81
2022/09/03 04:47:45;;;;;;;1.15;0.70;;;13.10;96.20;;;;;;4993200;28;20219;-83
2022/09/03 04:50:12;;;;;;;1.95;1.20;;;13.00;96.30;;;;;;4991254;28;20180;-84
2022/09/03 04:52:38;;;;;;;1.63;0.88;;;13.10;96.20;;;;;;4994186;28;20274;-83
2022/09/03 04:55:04;;;;;;;2.28;0.98;;;13.10;96.20;;;;;;4977273;28;20371;-83
2022/09/03 04:57:36;;;;;;;2.92;1.00;;;13.00;96.30;;;;;;4977391;28;20199;-83
2022/09/03 05:00:03;;;;;;;1.23;0.80;;;12.90;96.80;;;;;;5000071;28;20167;-82
2022/09/03 05:02:29;;;;;;;3.33;0.90;;;13.00;96.60;;;;;;4994714;28;20180;-82
2022/09/03 05:04:55;;;;;;;2.15;0.77;;;12.90;96.50;;;;;;4994311;28;20618;-80
2022/09/03 05:07:21;;;;;;;1.35;0.90;;;12.90;96.60;;;;;;4977331;28;20236;-83
2022/09/03 05:09:46;;;;;;;2.60;0.90;;;12.90;96.70;;;;;;4994699;28;20259;-82
2022/09/03 05:12:12;;;;;;;2.25;0.77;;;12.90;96.60;;;;;;4986322;28;20562;-82
2022/09/03 05:14:38;;;;;;;2.70;1.00;;;12.90;96.60;;;;;;4994111;28;20184;-82
2022/09/03 05:17:04;;;;;;;0.93;0.80;;;12.80;96.80;;;;;;4976573;28;20626;-82
2022/09/03 05:19:30;;;;;;;1.85;1.02;;;12.90;96.70;;;;;;4992875;28;20634;-82
2022/09/03 05:21:56;;;;;;;4.80;1.27;;;12.90;96.80;;;;;;4991948;28;20181;-83
2022/09/03 05:24:23;;;;;;;1.73;0.95;;;13.00;96.70;;;;;;4991608;28;20681;-82
2022/09/03 05:26:49;;;;;;;2.28;1.00;;;13.00;96.70;;;;;;4992945;28;20548;-82
2022/09/03 05:29:15;;;;;;;0.90;0.75;;;13.10;96.80;;;;;;4995089;28;20191;-81
2022/09/03 05:31:40;;;;;;;1.60;0.95;;;13.10;96.80;;;;;;4991279;28;20175;-83
2022/09/03 05:34:08;;;;;;;1.48;1.02;;;13.10;96.60;;;;;;4986610;28;20184;-83
2022/09/03 05:36:36;;;;;;;1.88;0.98;;;13.20;96.70;;;;;;4993891;28;20252;-82
2022/09/03 05:39:03;;;;;;;1.33;0.90;;;13.20;96.50;;;;;;4993849;28;20627;-82
2022/09/03 05:41:31;;;;;;;1.88;1.00;;;13.30;96.40;;;;;;4990625;28;20232;-82
2022/09/03 05:44:00;;;;;;;2.03;0.85;;;13.40;96.60;;;;;;4986210;28;20243;-82
2022/09/03 05:46:32;;;;;;;1.88;1.35;;;13.40;96.50;;;;;;4987313;28;20176;-81
2022/09/03 05:49:00;;;;;;;1.73;0.85;;;13.40;96.60;;;;;;4984879;28;20346;-83
2022/09/03 05:51:25;;;;;;;6.07;0.88;;;13.50;96.60;;;;;;4993280;28;20306;-83
2022/09/03 05:53:52;;;;;;;2.95;0.93;;;13.50;96.30;;;;;;4993085;28;20263;-82
2022/09/03 05:56:20;;;;;;;1.48;0.85;;;13.60;96.20;;;;;;4985223;28;20191;-82
2022/09/03 05:58:48;;;;;;;4.18;1.00;;;13.70;96.20;;;;;;4993766;28;20183;-83
2022/09/03 06:01:20;;;;;;;4.80;0.88;;;13.80;96.20;;;;;;4976069;28;20286;-83
2022/09/03 06:03:53;;;;;;;4.20;0.88;;;13.80;96.20;;;;;;4978179;28;20231;-83
2022/09/03 06:06:24;;;;;;;1.50;1.05;;;13.90;96.10;;;;;;4978031;28;20198;-83
2022/09/03 06:09:06;;;;;;;2.65;0.98;;;13.90;96.10;;;;;;4980093;28;20596;-85
2022/09/03 06:11:34;;;;;;;5.00;0.95;;;14.00;95.80;;;;;;4997461;28;20176;-84
2022/09/03 06:14:03;;;;;;;2.13;0.80;;;14.10;95.70;;;;;;4997877;28;20184;-84
2022/09/03 06:16:30;;;;;;;1.45;0.80;;;14.10;95.70;;;;;;4980328;28;20187;-83
2022/09/03 06:18:56;;;;;;;1.33;1.02;;;14.20;95.90;;;;;;4997800;28;20192;-83
2022/09/03 06:21:22;;;;;;;1.83;0.90;;;14.20;95.40;;;;;;4997697;28;20529;-86
2022/09/03 06:23:53;;;;;;;4.07;0.90;;;14.30;95.60;;;;;;4995727;28;20258;-83
2022/09/03 06:26:19;;;;;;;2.90;1.23;;;14.40;95.40;;;;;;4997367;28;20966;-86
2022/09/03 06:28:47;;;;;;;3.13;0.90;;;14.40;95.30;;;;;;4996629;28;20302;-84
2022/09/03 06:31:16;;;;;;;2.72;1.23;;;14.50;95.30;;;;;;4997002;28;20176;-84
2022/09/03 06:33:42;;;;;;;2.55;0.90;;;14.50;95.20;;;;;;4997418;28;20246;-83
2022/09/03 06:36:12;;;;;;;3.90;0.90;;;14.60;95.30;;;;;;4997266;28;20303;-81
2022/09/03 06:38:38;;;;;;;3.53;1.15;;;14.60;95.30;;;;;;4992762;28;20186;-82
2022/09/03 06:41:07;;;;;;;1.40;0.80;;;14.70;95.10;;;;;;4990854;28;20266;-83
2022/09/03 06:43:41;;;;;;;1.83;0.75;;;14.80;95.20;;;;;;4997067;28;20627;-84
2022/09/03 06:46:10;;;;;;;3.22;1.00;;;14.90;95.10;;;;;;4984288;28;20790;-84
2022/09/03 06:48:37;;;;;;;4.10;0.98;;;15.00;94.80;;;;;;4994652;28;20223;-84
2022/09/03 06:51:09;;;;;;;1.38;0.93;;;15.00;94.80;;;;;;4995767;28;20180;-84
2022/09/03 06:53:40;;;;;;;2.17;1.02;;;15.10;94.80;;;;;;4997125;28;20188;-83
2022/09/03 06:56:09;;;;;;;3.35;1.20;;;15.20;94.70;;;;;;4990758;28;20185;-84
2022/09/03 06:58:42;;;;;;;1.08;0.82;;;15.30;94.50;;;;;;4974265;28;20187;-83
2022/09/03 07:01:13;;;;;;;3.55;1.25;;;15.40;94.20;;;;;;4978599;28;20196;-86
2022/09/03 07:03:41;;;;;;;1.58;0.98;;;15.30;94.20;;;;;;4988672;28;20528;-84
2022/09/03 07:06:12;;;;;;;1.27;1.05;;;15.50;94.30;;;;;;4993338;28;20271;-85
2022/09/03 07:08:39;;;;;;;2.13;1.00;;;15.50;94.00;;;;;;4994735;28;20219;-86
2022/09/03 07:11:10;;;;;;;2.25;1.02;;;15.60;94.10;;;;;;4990623;28;20195;-85
2022/09/03 07:13:36;;;;;;;1.98;1.02;;;15.70;94.20;;;;;;4978615;28;20231;-85
2022/09/03 07:16:05;;;;;;;2.30;1.00;;;15.70;94.30;;;;;;4989899;28;20176;-83
2022/09/03 07:18:31;;;;;;;2.60;1.00;;;15.80;94.00;;;;;;4993363;28;20199;-83
2022/09/03 07:21:09;;;;;;;2.83;1.13;;;15.90;93.90;;;;;;4996156;28;20221;-82
2022/09/03 07:23:36;;;;;;;3.08;0.90;;;16.00;93.90;;;;;;4987666;28;20183;-84
2022/09/03 07:26:06;;;;;;;3.03;1.30;;;16.10;93.90;;;;;;4991424;28;20650;-85
2022/09/03 07:28:34;;;;;;;4.00;1.17;;;16.30;93.80;;;;;;4987868;28;20234;-84
2022/09/03 07:31:03;;;;;;;1.50;0.93;;;16.40;93.50;;;;;;4980157;28;20175;-83
2022/09/03 07:33:30;;;;;;;3.05;1.15;;;16.50;93.50;;;;;;4978558;28;20278;-86
2022/09/03 07:36:01;;;;;;;1.83;1.33;;;16.60;93.20;;;;;;4992551;28;20637;-86
2022/09/03 07:38:26;;;;;;;4.60;0.90;;;16.70;92.70;;;;;;4995168;28;20697;-84
2022/09/03 07:41:03;;;;;;;2.08;0.98;;;16.90;92.70;;;;;;4976181;28;20231;-85
2022/09/03 07:43:33;;;;;;;3.72;1.35;;;17.00;92.50;;;;;;4981777;28;20196;-82
2022/09/03 07:46:00;;;;;;;2.38;0.90;;;17.00;92.00;;;;;;4974000;28;20563;-83
2022/09/03 07:48:26;;;;;;;3.67;1.13;;;17.10;91.90;;;;;;4994521;28;20561;-86
2022/09/03 07:50:53;;;;;;;3.03;1.05;;;17.20;92.00;;;;;;4994589;28;20180;-82
2022/09/03 07:53:19;;;;;;;3.40;1.15;;;17.30;92.10;;;;;;4995706;28;20933;-82
2022/09/03 07:55:46;;;;;;;1.63;1.02;;;17.40;91.90;;;;;;4978491;28;20179;-84
2022/09/03 07:58:13;;;;;;;2.13;0.90;;;17.60;91.80;;;;;;4978304;28;20275;-82
2022/09/03 08:00:39;;;;;;;4.85;1.00;;;17.60;91.60;;;;;;4977895;28;20183;-83
2022/09/03 08:03:07;;;;;;;1.65;0.98;;;17.70;91.50;;;;;;4977896;28;20206;-83
2022/09/03 08:05:35;;;;;;;3.25;1.10;;;17.80;90.90;;;;;;4995654;28;20183;-83
2022/09/03 08:08:04;;;;;;;3.00;1.10;;;17.80;90.90;;;;;;4994151;28;20220;-83
2022/09/03 08:10:34;;;;;;;2.22;1.13;;;17.90;91.10;;;;;;4995815;28;20529;-80
2022/09/03 08:13:00;;;;;;;3.35;1.05;;;18.00;90.80;;;;;;4993397;28;20210;-83
2022/09/03 08:15:26;;;;;;;4.80;1.10;;;18.10;91.30;;;;;;4994845;28;20203;-84
2022/09/03 08:17:52;;;;;;;2.50;0.88;;;18.20;91.10;;;;;;4977404;28;20246;-82
2022/09/03 08:20:19;;;;;;;1.63;0.90;;;18.30;90.70;;;;;;4995462;28;20677;-81
2022/09/03 08:22:45;;;;;;;8.27;1.00;;;18.40;90.60;;;;;;4995334;28;20203;-83
2022/09/03 08:25:10;;;;;;;5.95;0.95;;;18.50;90.60;;;;;;4990752;28;20181;-83
2022/09/03 08:27:36;;;;;;;1.67;1.00;;;18.60;90.70;;;;;;4989536;28;20211;-83
2022/09/03 08:30:03;;;;;;;1.92;1.10;;;18.70;90.90;;;;;;5003171;28;20531;-83
2022/09/03 08:32:29;;;;;;;4.63;1.02;;;18.80;90.30;;;;;;4998517;28;20294;-82
2022/09/03 08:34:54;;;;;;;3.47;0.95;;;18.90;90.30;;;;;;4977269;28;20627;-83
2022/09/03 08:37:21;;;;;;;1.48;0.75;;;19.00;89.30;;;;;;4994987;28;20184;-81
2022/09/03 08:39:47;;;;;;;4.68;1.02;;;19.10;88.60;;;;;;4995080;28;20619;-83
2022/09/03 08:42:22;;;;;;;2.97;1.00;;;19.10;88.40;;;;;;4994883;28;20198;-82
2022/09/03 08:44:55;;;;;;;4.50;0.98;;;19.10;87.70;;;;;;4977155;28;20198;-82
2022/09/03 08:47:24;;;;;;;1.00;0.82;;;19.20;88.60;;;;;;4994038;28;20226;-81
2022/09/03 08:49:58;;;;;;;3.67;0.80;;;19.30;87.00;;;;;;4993039;28;20180;-81
2022/09/03 08:52:37;;;;;;;0.85;0.80;;;19.40;87.50;;;;;;4994773;28;20190;-82
2022/09/03 08:55:06;;;;;;;2.63;0.88;;;19.50;86.60;;;;;;4994924;28;20515;-83
2022/09/03 08:57:40;;;;;;;1.63;0.75;;;19.50;87.00;;;;;;4977209;28;20192;-83
2022/09/03 09:00:06;;;;;;;1.83;0.98;;;19.70;87.40;;;;;;5000787;28;20178;-83
2022/09/03 09:02:54;;;;;;;1.83;1.05;;;19.70;86.90;;;;;;4989519;28;20207;-83
2022/09/03 09:05:29;;;;;;;9.07;1.02;;;19.80;85.70;;;;;;4988628;28;20192;-83
2022/09/03 09:08:24;;;;;;;1.40;0.90;;;19.90;86.70;;;;;;4977404;28;20609;-82
2022/09/03 09:11:23;;;;;;;7.22;1.10;;;20.00;87.00;;;;;;4985602;28;20203;-84
2022/09/03 09:14:01;;;;;;;4.22;0.90;;;20.10;86.20;;;;;;4994298;28;20527;-82
2022/09/03 09:16:44;;;;;;;2.90;1.02;;;20.20;86.50;;;;;;4994230;28;20300;-82
2022/09/03 09:19:27;;;;;;;5.63;1.08;;;20.20;85.50;;;;;;4993315;28;20196;-83
2022/09/03 09:22:00;;;;;;;2.58;0.80;;;20.30;85.50;;;;;;4986714;28;20183;-84
2022/09/03 09:24:31;;;;;;;1.33;0.90;;;20.40;84.70;;;;;;4989066;28;20718;-82
2022/09/03 09:26:59;;;;;;;1.23;0.80;;;20.60;85.10;;;;;;4991845;28;20188;-82
2022/09/03 09:29:31;;;;;;;5.22;1.23;;;20.70;84.10;;;;;;4988784;28;20629;-84
2022/09/03 09:31:56;;;;;;;2.08;0.82;;;20.70;82.90;;;;;;4993449;28;20180;-82
2022/09/03 09:34:22;;;;;;;1.48;0.93;;;20.80;84.10;;;;;;4994081;28;20742;-83
2022/09/03 09:36:51;;;;;;;2.75;1.15;;;20.90;82.70;;;;;;4976778;28;20194;-82
2022/09/03 09:39:17;;;;;;;2.63;1.00;;;20.90;81.80;;;;;;4975869;28;20203;-82
2022/09/03 09:42:07;;;;;;;1.30;0.95;;;21.00;82.80;;;;;;4993911;28;20302;-82
2022/09/03 09:44:32;;;;;;;2.30;1.17;;;21.00;80.60;;;;;;4964215;28;20187;-82
2022/09/03 09:47:05;;;;;;;2.28;0.88;;;21.10;80.70;;;;;;4993496;28;20191;-82
2022/09/03 09:49:49;;;;;;;3.80;0.77;;;21.20;80.90;;;;;;4992588;28;20208;-83
2022/09/03 09:52:16;;;;;;;1.30;0.90;;;21.20;80.60;;;;;;4992558;28;20194;-83
2022/09/03 09:54:44;;;;;;;1.35;0.80;;;21.30;79.80;;;;;;4993861;28;20612;-83
2022/09/03 09:57:21;;;;;;;1.38;0.65;;;21.40;79.80;;;;;;4994342;28;20554;-82
2022/09/03 09:59:48;;;;;;;5.80;1.00;;;21.50;78.70;;;;;;4996218;28;20176;-85
2022/09/03 10:02:26;;;;;;;1.50;0.80;;;21.40;78.00;;;;;;4994023;28;20179;-84
2022/09/03 10:04:53;;;;;;;3.65;0.98;;;21.40;77.70;;;;;;4993656;28;20262;-84
2022/09/03 10:07:31;;;;;;;4.50;1.13;;;21.40;78.30;;;;;;4976383;28;20199;-85
2022/09/03 10:10:19;;;;;;;2.75;0.80;;;21.50;79.70;;;;;;4989658;28;20581;-85
2022/09/03 10:13:20;;;;;;;2.10;0.80;;;21.60;78.50;;;;;;4993762;28;20182;-83
2022/09/03 10:15:59;;;;;;;2.22;0.77;;;21.70;77.00;;;;;;4990063;28;20199;-83
2022/09/03 10:18:38;;;;;;;2.90;1.00;;;21.70;78.10;;;;;;4993451;28;20307;-84
2022/09/03 10:21:10;;;;;;;1.10;0.90;;;21.80;76.90;;;;;;4993461;28;20183;-82
2022/09/03 10:24:15;;;;;;;1.40;0.93;;;21.90;77.30;;;;;;4992376;28;20176;-83
2022/09/03 10:26:45;;;;;;;1.38;0.80;;;22.00;77.00;;;;;;4991781;28;20548;-84
2022/09/03 10:29:17;;;;;;;1.75;0.90;;;22.00;76.60;;;;;;4976689;28;20239;-84
2022/09/03 10:32:22;;;;;;;1.63;0.90;;;22.10;77.20;;;;;;4992867;28;20180;-84
2022/09/03 10:34:57;;;;;;;1.23;0.75;;;22.20;76.90;;;;;;4979187;28;20180;-83
2022/09/03 10:37:53;;;;;;;1.85;1.00;;;22.40;76.20;;;;;;4987764;28;20183;-85
2022/09/03 10:40:40;;;;;;;4.03;0.73;;;22.50;74.40;;;;;;4983904;28;20280;-83
2022/09/03 10:43:20;;;;;;;1.58;0.80;;;22.40;75.40;;;;;;4952978;29;20189;-83
2022/09/03 10:46:16;;;;;;;1.30;0.88;;;22.40;74.10;;;;;;4951910;29;20240;-83
2022/09/03 10:49:01;;;;;;;3.03;1.02;;;22.40;74.80;;;;;;4951228;29;20209;-83
2022/09/03 10:51:32;;;;;;;0.88;0.70;;;22.40;74.60;;;;;;4955278;29;20586;-83
2022/09/03 10:54:07;;;;;;;1.65;0.65;;;22.50;74.20;;;;;;4955517;28;20169;-83
2022/09/03 10:56:59;;;;;;;4.05;1.23;;;22.50;74.50;;;;;;4953671;29;20271;-84
2022/09/03 11:00:06;;;;;;;1.88;0.80;;;22.50;74.50;;;;;;4956590;28;20268;-84
2022/09/03 11:03:01;;;;;;;1.77;0.70;;;22.60;73.70;;;;;;4954277;28;20812;-84
2022/09/03 11:05:37;;;;;;;2.00;1.08;;;22.70;73.00;;;;;;4958586;28;20571;-83
2022/09/03 11:08:13;;;;;;;1.92;0.60;;;22.80;72.60;;;;;;4971769;28;20212;-84
2022/09/03 11:10:48;;;;;;;1.20;0.80;;;22.90;73.30;;;;;;4957091;28;20638;-83
2022/09/03 11:13:26;;;;;;;2.65;0.80;;;23.00;73.10;;;;;;4956409;29;20197;-85
2022/09/03 11:16:21;;;;;;;2.40;1.02;;;23.00;73.60;;;;;;4954174;28;20271;-83
2022/09/03 11:19:10;;;;;;;2.05;0.80;;;23.10;73.30;;;;;;4948534;29;20280;-84
2022/09/03 11:21:38;;;;;;;3.90;0.90;;;23.20;73.30;;;;;;4954921;28;20201;-83
2022/09/03 11:24:18;;;;;;;3.15;0.80;;;23.20;73.20;;;;;;4954833;28;20181;-84
2022/09/03 11:26:51;;;;;;;1.63;0.70;;;23.30;72.20;;;;;;4955899;29;20259;-83
2022/09/03 11:29:28;;;;;;;4.32;0.98;;;23.40;73.10;;;;;;4955306;28;20647;-84
2022/09/03 11:32:15;;;;;;;4.70;0.82;;;23.50;72.50;;;;;;4955391;28;20667;-83
2022/09/03 11:34:49;;;;;;;1.00;0.60;;;23.70;71.00;;;;;;4955850;28;20184;-82
2022/09/03 11:37:26;;;;;;;2.90;0.73;;;23.70;71.20;;;;;;4952806;29;20199;-84
2022/09/03 11:40:16;;;;;;;3.63;0.90;;;23.60;70.50;;;;;;4968150;28;20210;-84
2022/09/03 11:42:43;;;;;;;1.23;0.70;;;23.70;71.40;;;;;;4991823;28;20181;-84
2022/09/03 11:45:28;;;;;;;1.02;0.70;;;23.80;71.20;;;;;;4988045;28;21419;-84
2022/09/03 11:47:55;;;;;;;2.60;0.90;;;23.70;70.70;;;;;;4992131;28;20218;-81
2022/09/03 11:50:27;;;;;;;0.80;0.50;;;23.60;71.30;;;;;;4994613;28;20178;-82
2022/09/03 11:53:07;;;;;;;1.10;0.70;;;23.40;70.80;;;;;;4994190;28;20176;-81
2022/09/03 11:55:55;;;;;;;3.28;0.70;;;23.50;71.50;;;;;;4988856;28;20176;-82
2022/09/03 11:58:29;;;;;;;1.58;0.70;;;23.40;70.40;;;;;;4988220;28;20184;-82
2022/09/03 12:00:57;;;;;;;1.60;0.90;;;23.50;71.00;;;;;;4991770;28;20314;-81
2022/09/03 12:03:36;;;;;;;0.70;0.57;;;23.60;71.50;;;;;;4987344;28;20177;-83
2022/09/03 12:06:29;;;;;;;4.22;0.88;;;23.80;71.80;;;;;;4990983;28;20186;-85
2022/09/03 12:09:06;;;;;;;2.58;0.80;;;23.80;69.40;;;;;;4987628;28;20251;-84
2022/09/03 12:11:43;;;;;;;2.25;0.80;;;24.00;71.00;;;;;;4989451;28;20218;-83
2022/09/03 12:14:15;;;;;;;1.73;0.70;;;24.00;69.60;;;;;;4994470;28;20194;-82
2022/09/03 12:17:12;;;;;;;0.82;0.75;;;23.80;70.30;;;;;;4990480;28;20191;-81
2022/09/03 12:19:49;;;;;;;1.70;0.90;;;23.80;70.30;;;;;;4994047;28;20673;-82
2022/09/03 12:22:16;;;;;;;0.98;0.73;;;24.10;69.30;;;;;;4982423;28;20211;-80
2022/09/03 12:24:43;;;;;;;4.78;1.00;;;24.20;68.00;;;;;;4975385;28;20207;-82
2022/09/03 12:27:21;;;;;;;1.92;0.80;;;24.10;68.00;;;;;;4990158;28;20222;-82
2022/09/03 12:29:58;;;;;;;1.73;0.90;;;24.20;69.50;;;;;;4984464;28;20181;-82
2022/09/03 12:32:35;;;;;;;3.88;1.00;;;24.30;69.20;;;;;;4983567;28;20218;-80
2022/09/03 12:35:23;;;;;;;0.95;0.75;;;24.50;68.30;;;;;;4990597;28;20506;-81
2022/09/03 12:37:51;;;;;;;2.88;1.10;;;24.70;66.90;;;;;;4987357;28;20544;-82
2022/09/03 12:40:25;;;;;;;1.58;0.88;;;24.70;67.90;;;;;;4992170;28;20219;-81
2022/09/03 12:42:52;;;;;;;1.38;0.93;;;24.60;67.80;;;;;;4991065;28;20218;-82
2022/09/03 12:45:21;;;;;;;1.40;0.85;;;24.10;67.40;;;;;;4986903;28;20208;-83
2022/09/03 12:47:47;;;;;;;2.92;0.90;;;24.00;69.00;;;;;;4989593;28;20216;-82
2022/09/03 12:50:20;;;;;;;1.83;1.00;;;24.10;68.20;;;;;;4992659;28;20180;-83
2022/09/03 12:52:50;;;;;;;1.23;0.68;;;24.20;67.40;;;;;;4969624;28;20267;-83
2022/09/03 12:55:22;;;;;;;2.10;1.10;;;24.30;67.80;;;;;;4973489;28;20211;-83
2022/09/03 12:57:55;;;;;;;1.67;0.80;;;24.40;68.60;;;;;;4969903;28;20188;-82
2022/09/03 13:00:21;;;;;;;1.25;0.95;;;24.60;67.00;;;;;;4987979;28;20231;-84
2022/09/03 13:02:59;;;;;;;3.03;0.93;;;24.80;66.70;;;;;;4984663;28;20189;-82
2022/09/03 13:05:29;;;;;;;1.88;1.05;;;24.80;66.20;;;;;;4971800;28;20699;-83
2022/09/03 13:07:59;;;;;;;1.20;0.80;;;24.80;67.10;;;;;;4985587;28;20207;-83
2022/09/03 13:10:26;;;;;;;1.35;1.05;;;24.90;67.20;;;;;;4984214;28;20681;-84
2022/09/03 13:12:58;;;;;;;4.38;1.00;;;25.10;67.40;;;;;;4992968;28;20477;-85
2022/09/03 13:15:25;;;;;;;1.65;0.90;;;25.10;65.30;;;;;;4988534;28;20184;-81
2022/09/03 13:18:19;;;;;;;0.88;0.70;;;24.90;65.50;;;;;;4992916;28;20179;-81
2022/09/03 13:21:33;;;;;;;3.33;0.80;;;24.80;66.90;;;;;;4985905;28;20264;-83